Hovedside
METAR-TAF:

METAR-TAF

Lufthavner :

Siirt, Tyrkia

breddegrad: 37-58-41N, lengdegrad: 41-50-21E, høyde over havet: 610 m

Gjeldene værobservasjon

Denne rapporten ble laget for 1 time og 14 minutter siden, klokken 07:50 UTC
Vind 6 kt fra Vest-sørvest, skiftende mellom Sør-sørvest og Nord
Temperatur 22°C
Luftfuktighet 31%
Trykk 1015 hPa
Sikt 10 km eller mer
ingen skyer under 1500 m og ingen bygeskyer

METAR: LTCL 250750Z 25006KT 210V010 CAVOK 22/04 Q1015

Tid: 12:04 (09:04 UTC)

Varsel

Denne rapporten ble laget for 1 time og 24 minutter siden, klokken 07:40 UTC
Varsel gyldig fra 25. klokken 09 UTC til 25. klokken 18 UTC
Vind 7 kt fra Vest-sørvest
Sikt 10 km eller mer
ingen skyer under 1500 m og ingen bygeskyer

TAF: LTCL 250740Z 2509/2518 24007KT CAVOK

Værobservasjoner og værvarsel for over 4000 flyplasser (METAR- og TAF-rapporter).

Tilgjengelige stasjoner er representert av de røde og gule prikkene på kartet.

Hold musepekeren over prikken for å se navnet på stasjonen.

Klikk så for å se værobservasjoner og -varsler.

For å forandre kartet kan du klikke på den grønne knappen med svart kryss for å zoome inn, på den grønne knappen med strek for å zoome ut, eller på de grønne pilene for å se tilstøtende kart.


METAR-TAF: